sensor_id;sensor_type;location;lat;lon;timestamp;temperature;humidity
10294;DHT22;5192;50.328;7.610;2022-08-03T00:00:59;19.50;99.90
10294;DHT22;5192;50.328;7.610;2022-08-03T00:03:26;19.50;99.90
10294;DHT22;5192;50.328;7.610;2022-08-03T00:05:54;19.40;99.90
10294;DHT22;5192;50.328;7.610;2022-08-03T00:08:25;19.40;99.90
10294;DHT22;5192;50.328;7.610;2022-08-03T00:10:53;19.40;99.90
10294;DHT22;5192;50.328;7.610;2022-08-03T00:13:25;19.30;99.90
10294;DHT22;5192;50.328;7.610;2022-08-03T00:15:55;19.20;99.90
10294;DHT22;5192;50.328;7.610;2022-08-03T00:18:23;19.20;99.90
10294;DHT22;5192;50.328;7.610;2022-08-03T00:20:52;19.20;99.90
10294;DHT22;5192;50.328;7.610;2022-08-03T00:23:33;19.10;99.90
10294;DHT22;5192;50.328;7.610;2022-08-03T00:25:59;19.10;99.90
10294;DHT22;5192;50.328;7.610;2022-08-03T00:28:26;19.10;99.90
10294;DHT22;5192;50.328;7.610;2022-08-03T00:30:52;19.10;99.90
10294;DHT22;5192;50.328;7.610;2022-08-03T00:33:23;19.10;99.90
10294;DHT22;5192;50.328;7.610;2022-08-03T00:35:51;19.00;99.90
10294;DHT22;5192;50.328;7.610;2022-08-03T00:38:19;19.00;99.90
10294;DHT22;5192;50.328;7.610;2022-08-03T00:40:46;18.90;99.90
10294;DHT22;5192;50.328;7.610;2022-08-03T00:43:24;18.90;99.90
10294;DHT22;5192;50.328;7.610;2022-08-03T00:46:12;18.80;99.90
10294;DHT22;5192;50.328;7.610;2022-08-03T00:48:42;18.80;99.90
10294;DHT22;5192;50.328;7.610;2022-08-03T00:51:10;18.70;99.90
10294;DHT22;5192;50.328;7.610;2022-08-03T00:53:36;18.70;99.90
10294;DHT22;5192;50.328;7.610;2022-08-03T00:56:02;18.70;99.90
10294;DHT22;5192;50.328;7.610;2022-08-03T00:58:28;18.70;99.90
10294;DHT22;5192;50.328;7.610;2022-08-03T01:00:55;18.60;99.90
10294;DHT22;5192;50.328;7.610;2022-08-03T01:03:22;18.60;99.90
10294;DHT22;5192;50.328;7.610;2022-08-03T01:05:59;18.60;99.90
10294;DHT22;5192;50.328;7.610;2022-08-03T01:08:59;18.50;99.90
10294;DHT22;5192;50.328;7.610;2022-08-03T01:14:45;18.50;99.90
10294;DHT22;5192;50.328;7.610;2022-08-03T01:17:27;18.50;99.90
10294;DHT22;5192;50.328;7.610;2022-08-03T01:20:12;18.40;99.90
10294;DHT22;5192;50.328;7.610;2022-08-03T01:31:16;18.20;99.90
10294;DHT22;5192;50.328;7.610;2022-08-03T01:34:05;18.20;99.90
10294;DHT22;5192;50.328;7.610;2022-08-03T01:36:37;18.20;99.90
10294;DHT22;5192;50.328;7.610;2022-08-03T01:39:05;18.20;99.90
10294;DHT22;5192;50.328;7.610;2022-08-03T01:41:55;18.10;99.90
10294;DHT22;5192;50.328;7.610;2022-08-03T01:44:39;18.10;99.90
10294;DHT22;5192;50.328;7.610;2022-08-03T01:47:07;18.10;99.90
10294;DHT22;5192;50.328;7.610;2022-08-03T01:49:44;18.10;99.90
10294;DHT22;5192;50.328;7.610;2022-08-03T01:52:16;18.00;99.90
10294;DHT22;5192;50.328;7.610;2022-08-03T01:54:53;18.00;99.90
10294;DHT22;5192;50.328;7.610;2022-08-03T01:57:26;17.90;99.90
10294;DHT22;5192;50.328;7.610;2022-08-03T01:59:56;17.90;99.90
10294;DHT22;5192;50.328;7.610;2022-08-03T02:02:46;17.90;99.90
10294;DHT22;5192;50.328;7.610;2022-08-03T02:05:24;17.80;99.90
10294;DHT22;5192;50.328;7.610;2022-08-03T02:07:53;17.80;99.90
10294;DHT22;5192;50.328;7.610;2022-08-03T02:10:21;17.80;99.90
10294;DHT22;5192;50.328;7.610;2022-08-03T02:12:48;17.70;99.90
10294;DHT22;5192;50.328;7.610;2022-08-03T02:15:16;17.60;99.90
10294;DHT22;5192;50.328;7.610;2022-08-03T02:17:45;17.70;99.90
10294;DHT22;5192;50.328;7.610;2022-08-03T02:20:13;17.60;99.90
10294;DHT22;5192;50.328;7.610;2022-08-03T02:22:43;17.60;99.90
10294;DHT22;5192;50.328;7.610;2022-08-03T02:25:12;17.60;99.90
10294;DHT22;5192;50.328;7.610;2022-08-03T02:28:03;17.50;99.90
10294;DHT22;5192;50.328;7.610;2022-08-03T02:30:35;17.50;99.90
10294;DHT22;5192;50.328;7.610;2022-08-03T02:33:06;17.40;99.90
10294;DHT22;5192;50.328;7.610;2022-08-03T02:35:36;17.40;99.90
10294;DHT22;5192;50.328;7.610;2022-08-03T02:38:07;17.40;99.90
10294;DHT22;5192;50.328;7.610;2022-08-03T02:40:35;17.30;99.90
10294;DHT22;5192;50.328;7.610;2022-08-03T02:43:06;17.30;99.90
10294;DHT22;5192;50.328;7.610;2022-08-03T02:45:35;17.30;99.90
10294;DHT22;5192;50.328;7.610;2022-08-03T02:48:08;17.30;99.90
10294;DHT22;5192;50.328;7.610;2022-08-03T02:50:37;17.30;99.90
10294;DHT22;5192;50.328;7.610;2022-08-03T02:53:07;17.20;99.90
10294;DHT22;5192;50.328;7.610;2022-08-03T02:55:35;17.20;99.90
10294;DHT22;5192;50.328;7.610;2022-08-03T02:58:03;17.20;99.90
10294;DHT22;5192;50.328;7.610;2022-08-03T03:00:31;17.10;99.90
10294;DHT22;5192;50.328;7.610;2022-08-03T03:03:04;17.10;99.90
10294;DHT22;5192;50.328;7.610;2022-08-03T03:05:31;17.10;99.90
10294;DHT22;5192;50.328;7.610;2022-08-03T03:08:01;17.00;99.90
10294;DHT22;5192;50.328;7.610;2022-08-03T03:10:27;17.10;99.90
10294;DHT22;5192;50.328;7.610;2022-08-03T03:12:57;17.00;99.90
10294;DHT22;5192;50.328;7.610;2022-08-03T03:15:26;17.00;99.90
10294;DHT22;5192;50.328;7.610;2022-08-03T03:17:54;16.90;99.90
10294;DHT22;5192;50.328;7.610;2022-08-03T03:20:21;16.90;99.90
10294;DHT22;5192;50.328;7.610;2022-08-03T03:22:52;16.90;99.90
10294;DHT22;5192;50.328;7.610;2022-08-03T03:25:20;16.90;99.90
10294;DHT22;5192;50.328;7.610;2022-08-03T03:27:48;16.90;99.90
10294;DHT22;5192;50.328;7.610;2022-08-03T03:30:13;16.90;99.90
10294;DHT22;5192;50.328;7.610;2022-08-03T03:32:40;16.90;99.90
10294;DHT22;5192;50.328;7.610;2022-08-03T03:35:08;16.90;99.90
10294;DHT22;5192;50.328;7.610;2022-08-03T03:37:36;16.90;99.90
10294;DHT22;5192;50.328;7.610;2022-08-03T03:40:04;16.80;99.90
10294;DHT22;5192;50.328;7.610;2022-08-03T03:42:30;16.80;99.90
10294;DHT22;5192;50.328;7.610;2022-08-03T03:44:57;16.80;99.90
10294;DHT22;5192;50.328;7.610;2022-08-03T03:47:24;16.80;99.90
10294;DHT22;5192;50.328;7.610;2022-08-03T03:49:51;16.70;99.90
10294;DHT22;5192;50.328;7.610;2022-08-03T03:52:17;16.70;99.90
10294;DHT22;5192;50.328;7.610;2022-08-03T03:54:44;16.60;99.90
10294;DHT22;5192;50.328;7.610;2022-08-03T03:57:15;16.50;99.90
10294;DHT22;5192;50.328;7.610;2022-08-03T03:59:41;16.60;99.90
10294;DHT22;5192;50.328;7.610;2022-08-03T04:02:10;16.50;99.90
10294;DHT22;5192;50.328;7.610;2022-08-03T04:04:36;16.50;99.90
10294;DHT22;5192;50.328;7.610;2022-08-03T04:07:23;16.50;99.90
10294;DHT22;5192;50.328;7.610;2022-08-03T04:10:25;16.50;99.90
10294;DHT22;5192;50.328;7.610;2022-08-03T04:13:14;16.50;99.90
10294;DHT22;5192;50.328;7.610;2022-08-03T04:15:45;16.40;99.90
10294;DHT22;5192;50.328;7.610;2022-08-03T04:18:14;16.50;99.90
10294;DHT22;5192;50.328;7.610;2022-08-03T04:20:45;16.40;99.90
10294;DHT22;5192;50.328;7.610;2022-08-03T04:23:15;16.40;99.90
10294;DHT22;5192;50.328;7.610;2022-08-03T04:25:42;16.40;99.90
10294;DHT22;5192;50.328;7.610;2022-08-03T04:28:10;16.40;99.90
10294;DHT22;5192;50.328;7.610;2022-08-03T04:30:37;16.50;99.90
10294;DHT22;5192;50.328;7.610;2022-08-03T04:33:05;16.50;99.90
10294;DHT22;5192;50.328;7.610;2022-08-03T04:35:34;16.50;99.90
10294;DHT22;5192;50.328;7.610;2022-08-03T04:38:03;16.50;99.90
10294;DHT22;5192;50.328;7.610;2022-08-03T04:40:35;16.50;99.90
10294;DHT22;5192;50.328;7.610;2022-08-03T04:43:07;16.50;99.90
10294;DHT22;5192;50.328;7.610;2022-08-03T04:45:35;16.50;99.90
10294;DHT22;5192;50.328;7.610;2022-08-03T04:48:06;16.50;99.90
10294;DHT22;5192;50.328;7.610;2022-08-03T04:50:34;16.50;99.90
10294;DHT22;5192;50.328;7.610;2022-08-03T04:53:06;16.60;99.90
10294;DHT22;5192;50.328;7.610;2022-08-03T04:55:35;16.60;99.90
10294;DHT22;5192;50.328;7.610;2022-08-03T04:58:06;16.60;99.90
10294;DHT22;5192;50.328;7.610;2022-08-03T05:00:35;16.60;99.90
10294;DHT22;5192;50.328;7.610;2022-08-03T05:03:05;16.60;99.90
10294;DHT22;5192;50.328;7.610;2022-08-03T05:05:34;16.60;99.90
10294;DHT22;5192;50.328;7.610;2022-08-03T05:08:01;16.60;99.90
10294;DHT22;5192;50.328;7.610;2022-08-03T05:10:27;16.70;99.90
10294;DHT22;5192;50.328;7.610;2022-08-03T05:12:53;16.70;99.90
10294;DHT22;5192;50.328;7.610;2022-08-03T05:15:19;16.80;99.90
10294;DHT22;5192;50.328;7.610;2022-08-03T05:17:45;16.70;99.90
10294;DHT22;5192;50.328;7.610;2022-08-03T05:20:11;16.80;99.90
10294;DHT22;5192;50.328;7.610;2022-08-03T05:22:38;17.00;99.90
10294;DHT22;5192;50.328;7.610;2022-08-03T05:25:04;17.10;99.90
10294;DHT22;5192;50.328;7.610;2022-08-03T05:27:30;17.10;99.90
10294;DHT22;5192;50.328;7.610;2022-08-03T05:29:57;17.20;99.90
10294;DHT22;5192;50.328;7.610;2022-08-03T05:32:24;17.10;99.90
10294;DHT22;5192;50.328;7.610;2022-08-03T05:34:51;17.10;99.90
10294;DHT22;5192;50.328;7.610;2022-08-03T05:37:18;17.20;99.90
10294;DHT22;5192;50.328;7.610;2022-08-03T05:39:45;17.30;99.90
10294;DHT22;5192;50.328;7.610;2022-08-03T05:42:14;17.40;99.90
10294;DHT22;5192;50.328;7.610;2022-08-03T05:44:41;17.40;99.90
10294;DHT22;5192;50.328;7.610;2022-08-03T05:47:08;17.50;99.90
10294;DHT22;5192;50.328;7.610;2022-08-03T05:49:35;17.60;99.90
10294;DHT22;5192;50.328;7.610;2022-08-03T05:52:01;17.70;99.90
10294;DHT22;5192;50.328;7.610;2022-08-03T05:54:27;17.80;99.90
10294;DHT22;5192;50.328;7.610;2022-08-03T05:56:56;17.90;99.90
10294;DHT22;5192;50.328;7.610;2022-08-03T05:59:23;18.00;99.90
10294;DHT22;5192;50.328;7.610;2022-08-03T06:01:51;18.10;99.90
10294;DHT22;5192;50.328;7.610;2022-08-03T06:04:17;18.20;99.90
10294;DHT22;5192;50.328;7.610;2022-08-03T06:06:46;18.10;99.90
10294;DHT22;5192;50.328;7.610;2022-08-03T06:09:14;18.30;99.90
10294;DHT22;5192;50.328;7.610;2022-08-03T06:11:41;18.40;99.90
10294;DHT22;5192;50.328;7.610;2022-08-03T06:14:07;18.50;99.90
10294;DHT22;5192;50.328;7.610;2022-08-03T06:16:34;18.50;99.90
10294;DHT22;5192;50.328;7.610;2022-08-03T06:19:01;18.60;99.90
10294;DHT22;5192;50.328;7.610;2022-08-03T06:21:29;18.70;99.90
10294;DHT22;5192;50.328;7.610;2022-08-03T06:23:56;18.60;99.90
10294;DHT22;5192;50.328;7.610;2022-08-03T06:26:27;18.80;99.90
10294;DHT22;5192;50.328;7.610;2022-08-03T06:28:54;18.80;99.90
10294;DHT22;5192;50.328;7.610;2022-08-03T06:31:26;18.90;99.90
10294;DHT22;5192;50.328;7.610;2022-08-03T06:33:54;19.00;99.90
10294;DHT22;5192;50.328;7.610;2022-08-03T06:36:21;19.20;99.90
10294;DHT22;5192;50.328;7.610;2022-08-03T06:38:49;19.30;99.90
10294;DHT22;5192;50.328;7.610;2022-08-03T06:41:14;19.50;99.90
10294;DHT22;5192;50.328;7.610;2022-08-03T06:43:41;19.60;99.90
10294;DHT22;5192;50.328;7.610;2022-08-03T06:46:07;19.70;99.90
10294;DHT22;5192;50.328;7.610;2022-08-03T06:48:34;19.80;99.90
10294;DHT22;5192;50.328;7.610;2022-08-03T06:51:00;19.80;99.90
10294;DHT22;5192;50.328;7.610;2022-08-03T06:53:26;19.90;99.90
10294;DHT22;5192;50.328;7.610;2022-08-03T06:55:52;20.00;99.90
10294;DHT22;5192;50.328;7.610;2022-08-03T06:58:19;20.10;99.90
10294;DHT22;5192;50.328;7.610;2022-08-03T07:00:46;20.20;99.90
10294;DHT22;5192;50.328;7.610;2022-08-03T07:03:12;20.40;99.90
10294;DHT22;5192;50.328;7.610;2022-08-03T07:05:41;20.50;99.90
10294;DHT22;5192;50.328;7.610;2022-08-03T07:08:09;20.60;99.90
10294;DHT22;5192;50.328;7.610;2022-08-03T07:10:36;20.70;99.90
10294;DHT22;5192;50.328;7.610;2022-08-03T07:13:04;20.80;99.90
10294;DHT22;5192;50.328;7.610;2022-08-03T07:15:33;20.90;99.90
10294;DHT22;5192;50.328;7.610;2022-08-03T07:18:00;21.00;99.90
10294;DHT22;5192;50.328;7.610;2022-08-03T07:20:28;21.10;99.90
10294;DHT22;5192;50.328;7.610;2022-08-03T07:22:54;21.20;99.90
10294;DHT22;5192;50.328;7.610;2022-08-03T07:25:21;21.30;99.90
10294;DHT22;5192;50.328;7.610;2022-08-03T07:27:47;21.30;99.90
10294;DHT22;5192;50.328;7.610;2022-08-03T07:30:14;21.40;99.90
10294;DHT22;5192;50.328;7.610;2022-08-03T07:32:44;21.50;94.60
10294;DHT22;5192;50.328;7.610;2022-08-03T07:35:10;21.70;99.90
10294;DHT22;5192;50.328;7.610;2022-08-03T07:37:36;21.80;99.30
10294;DHT22;5192;50.328;7.610;2022-08-03T07:40:05;21.90;96.30
10294;DHT22;5192;50.328;7.610;2022-08-03T07:42:31;22.00;88.00
10294;DHT22;5192;50.328;7.610;2022-08-03T07:45:07;22.20;87.00
10294;DHT22;5192;50.328;7.610;2022-08-03T07:47:35;22.30;87.00
10294;DHT22;5192;50.328;7.610;2022-08-03T07:50:06;22.40;87.20
10294;DHT22;5192;50.328;7.610;2022-08-03T07:52:32;22.50;74.90
10294;DHT22;5192;50.328;7.610;2022-08-03T07:55:20;22.60;69.00
10294;DHT22;5192;50.328;7.610;2022-08-03T07:57:52;22.70;68.70
10294;DHT22;5192;50.328;7.610;2022-08-03T08:00:24;22.70;72.60
10294;DHT22;5192;50.328;7.610;2022-08-03T08:02:51;22.80;71.20
10294;DHT22;5192;50.328;7.610;2022-08-03T08:05:18;23.00;55.20
10294;DHT22;5192;50.328;7.610;2022-08-03T08:07:44;23.00;49.90
10294;DHT22;5192;50.328;7.610;2022-08-03T08:10:12;23.20;47.10
10294;DHT22;5192;50.328;7.610;2022-08-03T08:12:39;23.20;48.60
10294;DHT22;5192;50.328;7.610;2022-08-03T08:15:07;23.30;39.70
10294;DHT22;5192;50.328;7.610;2022-08-03T08:17:54;23.40;37.20
10294;DHT22;5192;50.328;7.610;2022-08-03T08:20:26;23.60;34.30
10294;DHT22;5192;50.328;7.610;2022-08-03T08:22:54;23.70;31.00
10294;DHT22;5192;50.328;7.610;2022-08-03T08:25:23;23.70;29.40
10294;DHT22;5192;50.328;7.610;2022-08-03T08:27:49;23.90;34.30
10294;DHT22;5192;50.328;7.610;2022-08-03T08:30:18;24.00;27.90
10294;DHT22;5192;50.328;7.610;2022-08-03T08:32:47;24.10;20.80
10294;DHT22;5192;50.328;7.610;2022-08-03T08:35:13;24.30;12.70
10294;DHT22;5192;50.328;7.610;2022-08-03T08:37:40;24.40;8.50
10294;DHT22;5192;50.328;7.610;2022-08-03T08:40:08;24.60;7.70
10294;DHT22;5192;50.328;7.610;2022-08-03T08:42:53;24.70;2.20
10294;DHT22;5192;50.328;7.610;2022-08-03T08:45:25;24.90;1.00
10294;DHT22;5192;50.328;7.610;2022-08-03T08:48:17;25.10;1.00
10294;DHT22;5192;50.328;7.610;2022-08-03T08:50:55;25.30;1.00
10294;DHT22;5192;50.328;7.610;2022-08-03T08:53:25;25.40;1.00
10294;DHT22;5192;50.328;7.610;2022-08-03T08:55:58;25.50;1.00
10294;DHT22;5192;50.328;7.610;2022-08-03T08:58:31;25.60;1.00
10294;DHT22;5192;50.328;7.610;2022-08-03T09:00:59;25.70;1.00
10294;DHT22;5192;50.328;7.610;2022-08-03T09:03:25;25.90;1.00
10294;DHT22;5192;50.328;7.610;2022-08-03T09:05:52;26.00;1.00
10294;DHT22;5192;50.328;7.610;2022-08-03T09:08:17;26.10;1.00
10294;DHT22;5192;50.328;7.610;2022-08-03T09:10:44;26.30;1.00
10294;DHT22;5192;50.328;7.610;2022-08-03T09:13:11;26.50;1.00
10294;DHT22;5192;50.328;7.610;2022-08-03T09:15:36;26.70;1.00
10294;DHT22;5192;50.328;7.610;2022-08-03T09:18:04;26.70;1.00
10294;DHT22;5192;50.328;7.610;2022-08-03T09:20:35;26.80;1.00
10294;DHT22;5192;50.328;7.610;2022-08-03T09:23:07;26.90;1.00
10294;DHT22;5192;50.328;7.610;2022-08-03T09:25:40;27.00;1.00
10294;DHT22;5192;50.328;7.610;2022-08-03T09:30:34;27.30;1.00
10294;DHT22;5192;50.328;7.610;2022-08-03T09:33:05;27.50;1.00
10294;DHT22;5192;50.328;7.610;2022-08-03T09:35:38;27.60;1.00
10294;DHT22;5192;50.328;7.610;2022-08-03T09:38:24;27.70;1.00
10294;DHT22;5192;50.328;7.610;2022-08-03T09:40:53;27.80;1.00
10294;DHT22;5192;50.328;7.610;2022-08-03T09:43:20;27.90;1.00
10294;DHT22;5192;50.328;7.610;2022-08-03T09:45:46;28.00;1.00
10294;DHT22;5192;50.328;7.610;2022-08-03T09:48:30;28.10;1.00
10294;DHT22;5192;50.328;7.610;2022-08-03T09:51:03;28.10;1.00
10294;DHT22;5192;50.328;7.610;2022-08-03T09:53:30;28.20;1.00
10294;DHT22;5192;50.328;7.610;2022-08-03T09:55:59;28.30;1.00
10294;DHT22;5192;50.328;7.610;2022-08-03T09:58:28;28.30;1.00
10294;DHT22;5192;50.328;7.610;2022-08-03T10:01:04;28.40;1.00
10294;DHT22;5192;50.328;7.610;2022-08-03T10:03:57;28.50;1.00
10294;DHT22;5192;50.328;7.610;2022-08-03T10:06:27;28.70;1.00
10294;DHT22;5192;50.328;7.610;2022-08-03T10:09:17;28.70;1.00
10294;DHT22;5192;50.328;7.610;2022-08-03T10:11:44;28.80;1.00
10294;DHT22;5192;50.328;7.610;2022-08-03T10:14:14;29.00;1.00
10294;DHT22;5192;50.328;7.610;2022-08-03T10:16:55;29.20;1.00
10294;DHT22;5192;50.328;7.610;2022-08-03T10:19:22;29.30;1.00
10294;DHT22;5192;50.328;7.610;2022-08-03T10:21:55;29.30;1.00
10294;DHT22;5192;50.328;7.610;2022-08-03T10:24:27;29.20;1.00
10294;DHT22;5192;50.328;7.610;2022-08-03T10:27:07;29.10;1.00
10294;DHT22;5192;50.328;7.610;2022-08-03T10:29:49;29.20;1.00
10294;DHT22;5192;50.328;7.610;2022-08-03T10:32:55;29.50;1.00
10294;DHT22;5192;50.328;7.610;2022-08-03T10:35:49;29.60;1.00
10294;DHT22;5192;50.328;7.610;2022-08-03T10:39:05;29.60;1.00
10294;DHT22;5192;50.328;7.610;2022-08-03T10:41:28;29.60;1.00
10294;DHT22;5192;50.328;7.610;2022-08-03T10:44:18;29.80;1.00
10294;DHT22;5192;50.328;7.610;2022-08-03T10:47:15;30.00;1.00
10294;DHT22;5192;50.328;7.610;2022-08-03T10:49:47;30.20;1.00
10294;DHT22;5192;50.328;7.610;2022-08-03T10:52:14;30.30;1.00
10294;DHT22;5192;50.328;7.610;2022-08-03T10:54:45;30.30;1.00
10294;DHT22;5192;50.328;7.610;2022-08-03T10:57:54;30.30;1.00
10294;DHT22;5192;50.328;7.610;2022-08-03T11:00:48;30.50;1.00
10294;DHT22;5192;50.328;7.610;2022-08-03T11:03:17;30.70;1.00
10294;DHT22;5192;50.328;7.610;2022-08-03T11:06:19;30.90;1.00
10294;DHT22;5192;50.328;7.610;2022-08-03T11:09:23;31.10;1.00
10294;DHT22;5192;50.328;7.610;2022-08-03T11:11:54;31.00;1.00
10294;DHT22;5192;50.328;7.610;2022-08-03T11:14:24;31.00;1.00
10294;DHT22;5192;50.328;7.610;2022-08-03T11:17:13;31.20;1.00
10294;DHT22;5192;50.328;7.610;2022-08-03T11:19:47;31.40;1.00
10294;DHT22;5192;50.328;7.610;2022-08-03T11:22:14;31.40;1.00
10294;DHT22;5192;50.328;7.610;2022-08-03T11:27:34;31.80;1.00
10294;DHT22;5192;50.328;7.610;2022-08-03T11:33:05;32.00;1.00
10294;DHT22;5192;50.328;7.610;2022-08-03T11:35:39;32.30;1.00
10294;DHT22;5192;50.328;7.610;2022-08-03T11:38:22;32.50;1.00
10294;DHT22;5192;50.328;7.610;2022-08-03T11:40:55;32.50;1.00
10294;DHT22;5192;50.328;7.610;2022-08-03T11:46:15;32.60;1.00
10294;DHT22;5192;50.328;7.610;2022-08-03T11:48:54;32.70;1.00
10294;DHT22;5192;50.328;7.610;2022-08-03T11:51:28;32.60;1.00
10294;DHT22;5192;50.328;7.610;2022-08-03T11:54:06;32.40;1.00
10294;DHT22;5192;50.328;7.610;2022-08-03T11:59:34;32.60;1.00
10294;DHT22;5192;50.328;7.610;2022-08-03T12:04:56;32.80;1.00
10294;DHT22;5192;50.328;7.610;2022-08-03T12:07:33;33.00;1.00
10294;DHT22;5192;50.328;7.610;2022-08-03T12:10:14;33.30;1.00
10294;DHT22;5192;50.328;7.610;2022-08-03T12:12:41;33.50;1.00
10294;DHT22;5192;50.328;7.610;2022-08-03T12:15:16;33.50;1.00
10294;DHT22;5192;50.328;7.610;2022-08-03T12:17:54;33.40;1.00
10294;DHT22;5192;50.328;7.610;2022-08-03T12:20:27;33.30;1.00
10294;DHT22;5192;50.328;7.610;2022-08-03T12:23:06;33.40;1.00
10294;DHT22;5192;50.328;7.610;2022-08-03T12:25:35;33.20;1.00
10294;DHT22;5192;50.328;7.610;2022-08-03T12:28:15;33.20;1.00
10294;DHT22;5192;50.328;7.610;2022-08-03T12:30:49;33.40;1.00
10294;DHT22;5192;50.328;7.610;2022-08-03T12:33:56;33.60;1.00
10294;DHT22;5192;50.328;7.610;2022-08-03T12:36:36;33.20;1.00
10294;DHT22;5192;50.328;7.610;2022-08-03T12:39:08;33.50;1.00
10294;DHT22;5192;50.328;7.610;2022-08-03T12:41:40;33.70;1.00
10294;DHT22;5192;50.328;7.610;2022-08-03T12:44:08;33.90;1.00
10294;DHT22;5192;50.328;7.610;2022-08-03T12:46:56;34.10;1.00
10294;DHT22;5192;50.328;7.610;2022-08-03T12:52:24;34.60;1.00
10294;DHT22;5192;50.328;7.610;2022-08-03T12:55:04;35.00;1.00
10294;DHT22;5192;50.328;7.610;2022-08-03T12:57:46;35.00;1.00
10294;DHT22;5192;50.328;7.610;2022-08-03T13:00:17;35.10;1.00
10294;DHT22;5192;50.328;7.610;2022-08-03T13:02:44;35.10;1.00
10294;DHT22;5192;50.328;7.610;2022-08-03T13:05:16;35.30;1.00
10294;DHT22;5192;50.328;7.610;2022-08-03T13:07:45;35.50;1.00
10294;DHT22;5192;50.328;7.610;2022-08-03T13:10:36;35.60;1.00
10294;DHT22;5192;50.328;7.610;2022-08-03T13:13:04;35.50;1.00
10294;DHT22;5192;50.328;7.610;2022-08-03T13:15:34;34.70;1.00
10294;DHT22;5192;50.328;7.610;2022-08-03T13:18:08;34.80;1.00
10294;DHT22;5192;50.328;7.610;2022-08-03T13:20:35;34.80;1.00
10294;DHT22;5192;50.328;7.610;2022-08-03T13:23:08;34.80;1.00
10294;DHT22;5192;50.328;7.610;2022-08-03T13:25:34;35.00;1.00
10294;DHT22;5192;50.328;7.610;2022-08-03T13:28:07;35.20;1.00
10294;DHT22;5192;50.328;7.610;2022-08-03T13:30:34;35.30;1.00
10294;DHT22;5192;50.328;7.610;2022-08-03T13:33:04;35.40;1.00
10294;DHT22;5192;50.328;7.610;2022-08-03T13:35:35;35.50;1.00
10294;DHT22;5192;50.328;7.610;2022-08-03T13:38:05;35.60;1.00
10294;DHT22;5192;50.328;7.610;2022-08-03T13:40:34;35.50;1.00
10294;DHT22;5192;50.328;7.610;2022-08-03T13:43:06;35.60;1.00
10294;DHT22;5192;50.328;7.610;2022-08-03T13:45:57;35.80;1.00
10294;DHT22;5192;50.328;7.610;2022-08-03T13:48:23;35.80;1.00
10294;DHT22;5192;50.328;7.610;2022-08-03T13:50:54;35.80;1.00
10294;DHT22;5192;50.328;7.610;2022-08-03T13:53:21;35.80;1.00
10294;DHT22;5192;50.328;7.610;2022-08-03T13:55:48;35.70;1.00
10294;DHT22;5192;50.328;7.610;2022-08-03T13:58:18;36.00;1.00
10294;DHT22;5192;50.328;7.610;2022-08-03T14:01:05;35.80;1.00
10294;DHT22;5192;50.328;7.610;2022-08-03T14:03:31;35.80;1.00
10294;DHT22;5192;50.328;7.610;2022-08-03T14:05:58;35.80;1.00
10294;DHT22;5192;50.328;7.610;2022-08-03T14:08:23;36.30;1.00
10294;DHT22;5192;50.328;7.610;2022-08-03T14:10:51;36.60;1.00
10294;DHT22;5192;50.328;7.610;2022-08-03T14:13:18;37.10;1.00
10294;DHT22;5192;50.328;7.610;2022-08-03T14:15:44;37.80;1.00
10294;DHT22;5192;50.328;7.610;2022-08-03T14:18:12;38.60;1.00
10294;DHT22;5192;50.328;7.610;2022-08-03T14:20:37;39.50;1.00
10294;DHT22;5192;50.328;7.610;2022-08-03T14:23:04;40.10;1.00
10294;DHT22;5192;50.328;7.610;2022-08-03T14:25:31;39.80;1.00
10294;DHT22;5192;50.328;7.610;2022-08-03T14:27:57;40.40;1.00
10294;DHT22;5192;50.328;7.610;2022-08-03T14:30:25;41.90;1.00
10294;DHT22;5192;50.328;7.610;2022-08-03T14:32:55;41.90;1.00
10294;DHT22;5192;50.328;7.610;2022-08-03T14:35:25;42.50;1.00
10294;DHT22;5192;50.328;7.610;2022-08-03T14:37:52;42.50;1.00
10294;DHT22;5192;50.328;7.610;2022-08-03T14:40:19;42.50;1.00
10294;DHT22;5192;50.328;7.610;2022-08-03T14:42:44;43.30;1.00
10294;DHT22;5192;50.328;7.610;2022-08-03T14:45:10;44.10;1.00
10294;DHT22;5192;50.328;7.610;2022-08-03T14:47:39;44.40;1.00
10294;DHT22;5192;50.328;7.610;2022-08-03T14:50:06;43.10;1.00
10294;DHT22;5192;50.328;7.610;2022-08-03T14:52:32;43.40;1.00
10294;DHT22;5192;50.328;7.610;2022-08-03T14:55:07;44.00;1.00
10294;DHT22;5192;50.328;7.610;2022-08-03T14:57:35;44.20;1.00
10294;DHT22;5192;50.328;7.610;2022-08-03T15:00:01;43.20;1.00
10294;DHT22;5192;50.328;7.610;2022-08-03T15:02:29;43.20;1.00
10294;DHT22;5192;50.328;7.610;2022-08-03T15:04:56;42.80;1.00
10294;DHT22;5192;50.328;7.610;2022-08-03T15:07:23;41.60;1.00
10294;DHT22;5192;50.328;7.610;2022-08-03T15:09:50;40.60;1.00
10294;DHT22;5192;50.328;7.610;2022-08-03T15:12:15;41.30;1.00
10294;DHT22;5192;50.328;7.610;2022-08-03T15:14:42;42.30;1.00
10294;DHT22;5192;50.328;7.610;2022-08-03T15:17:08;43.00;1.00
10294;DHT22;5192;50.328;7.610;2022-08-03T15:19:35;41.40;1.00
10294;DHT22;5192;50.328;7.610;2022-08-03T15:22:02;42.70;1.00
10294;DHT22;5192;50.328;7.610;2022-08-03T15:24:28;42.50;1.00
10294;DHT22;5192;50.328;7.610;2022-08-03T15:26:56;41.80;1.00
10294;DHT22;5192;50.328;7.610;2022-08-03T15:29:22;42.20;1.00
10294;DHT22;5192;50.328;7.610;2022-08-03T15:31:49;42.30;1.00
10294;DHT22;5192;50.328;7.610;2022-08-03T15:34:16;42.20;1.00
10294;DHT22;5192;50.328;7.610;2022-08-03T15:36:44;42.40;1.00
10294;DHT22;5192;50.328;7.610;2022-08-03T15:39:11;42.00;1.00
10294;DHT22;5192;50.328;7.610;2022-08-03T15:41:37;41.70;1.00
10294;DHT22;5192;50.328;7.610;2022-08-03T15:44:02;41.50;1.00
10294;DHT22;5192;50.328;7.610;2022-08-03T15:46:30;42.50;1.00
10294;DHT22;5192;50.328;7.610;2022-08-03T15:48:57;42.20;1.00
10294;DHT22;5192;50.328;7.610;2022-08-03T15:51:24;42.90;1.00
10294;DHT22;5192;50.328;7.610;2022-08-03T15:53:52;43.10;1.00
10294;DHT22;5192;50.328;7.610;2022-08-03T15:56:19;44.00;1.00
10294;DHT22;5192;50.328;7.610;2022-08-03T15:58:45;44.70;1.00
10294;DHT22;5192;50.328;7.610;2022-08-03T16:01:12;43.90;1.00
10294;DHT22;5192;50.328;7.610;2022-08-03T16:03:39;44.10;1.00
10294;DHT22;5192;50.328;7.610;2022-08-03T16:06:06;44.30;1.00
10294;DHT22;5192;50.328;7.610;2022-08-03T16:08:35;43.80;1.00
10294;DHT22;5192;50.328;7.610;2022-08-03T16:11:02;44.40;1.00
10294;DHT22;5192;50.328;7.610;2022-08-03T16:13:29;43.60;1.00
10294;DHT22;5192;50.328;7.610;2022-08-03T16:15:54;41.10;1.00
10294;DHT22;5192;50.328;7.610;2022-08-03T16:18:24;41.60;1.00
10294;DHT22;5192;50.328;7.610;2022-08-03T16:20:53;42.20;1.00
10294;DHT22;5192;50.328;7.610;2022-08-03T16:23:18;40.70;1.00
10294;DHT22;5192;50.328;7.610;2022-08-03T16:25:57;41.50;1.00
10294;DHT22;5192;50.328;7.610;2022-08-03T16:28:25;42.80;1.00
10294;DHT22;5192;50.328;7.610;2022-08-03T16:30:54;43.70;1.00
10294;DHT22;5192;50.328;7.610;2022-08-03T16:33:25;43.90;1.00
10294;DHT22;5192;50.328;7.610;2022-08-03T16:35:52;44.10;1.00
10294;DHT22;5192;50.328;7.610;2022-08-03T16:38:17;44.20;1.00
10294;DHT22;5192;50.328;7.610;2022-08-03T16:40:48;44.40;1.00
10294;DHT22;5192;50.328;7.610;2022-08-03T16:43:24;43.20;1.00
10294;DHT22;5192;50.328;7.610;2022-08-03T16:45:57;43.70;1.00
10294;DHT22;5192;50.328;7.610;2022-08-03T16:48:26;44.40;1.00